Time;durP1;ratioP1;P1;durP2;ratioP2;P2;SDS_P1;SDS_P2;PMS_P1;PMS_P2;Temp;Humidity;BMP_temperature;BMP_pressure;BME280_temperature;BME280_humidity;BME280_pressure;Samples;Min_cycle;Max_cycle;Signal;HPM_P1;HPM_P2
2023/08/29 00:01:07;;;;;;;23.00;20.48;;;;;;;22.44;74.74;100016.56;1707144;83;21237;-56
2023/08/29 00:04:14;;;;;;;24.18;21.30;;;;;;;22.43;74.79;100017.66;1715196;83;21211;-54
2023/08/29 00:07:21;;;;;;;25.40;22.35;;;;;;;22.42;74.86;100020.98;1695815;83;21361;-54
2023/08/29 00:10:27;;;;;;;25.40;22.00;;;;;;;22.42;74.98;100022.95;1715598;83;21357;-54
2023/08/29 00:13:34;;;;;;;26.82;21.40;;;;;;;22.43;75.08;100022.69;1700164;82;21761;-55
2023/08/29 00:16:40;;;;;;;25.65;21.42;;;;;;;22.44;75.19;100022.14;1712134;83;21373;-55
2023/08/29 00:19:45;;;;;;;24.95;21.37;;;;;;;22.47;75.34;100027.20;1730298;82;21385;-55
2023/08/29 00:22:51;;;;;;;23.92;20.85;;;;;;;22.46;75.37;100031.07;1720306;82;21369;-54
2023/08/29 00:25:59;;;;;;;25.62;22.07;;;;;;;22.47;75.47;100035.57;1722991;82;21366;-54
2023/08/29 00:29:03;;;;;;;25.80;21.30;;;;;;;22.46;75.47;100039.44;1715254;83;21897;-55
2023/08/29 00:32:11;;;;;;;25.97;21.52;;;;;;;22.44;75.57;100029.12;1656101;86;21946;-54
2023/08/29 00:35:17;;;;;;;28.00;22.48;;;;;;;22.43;75.66;100026.87;1694626;83;21346;-55
2023/08/29 00:38:24;;;;;;;24.52;21.33;;;;;;;22.43;75.79;100019.05;1715595;83;21393;-55
2023/08/29 00:41:31;;;;;;;25.43;21.30;;;;;;;22.42;75.83;100020.98;1715728;83;21373;-55
2023/08/29 00:44:38;;;;;;;32.50;22.30;;;;;;;22.40;75.78;100021.82;1715695;82;21386;-54
2023/08/29 00:47:46;;;;;;;28.75;22.48;;;;;;;22.38;75.88;100007.83;1715783;83;21377;-55
2023/08/29 00:50:52;;;;;;;27.25;22.40;;;;;;;22.35;76.00;100011.99;1715971;82;21417;-54
2023/08/29 00:54:01;;;;;;;27.73;22.07;;;;;;;22.34;76.03;100015.90;1715803;83;21432;-54
2023/08/29 00:57:06;;;;;;;30.08;22.35;;;;;;;22.34;76.19;100008.08;1716495;83;22138;-55
2023/08/29 01:00:14;;;;;;;26.25;22.52;;;;;;;22.32;76.16;99999.11;1716310;83;21409;-54
2023/08/29 01:03:21;;;;;;;24.52;21.57;;;;;;;22.26;76.14;99989.01;1698793;83;21390;-55
2023/08/29 01:06:28;;;;;;;26.55;23.18;;;;;;;22.23;76.21;99978.37;1715608;83;21357;-55
2023/08/29 01:09:33;;;;;;;26.20;22.25;;;;;;;22.20;76.29;99983.91;1713918;81;21934;-55
2023/08/29 01:12:57;;;;;;;34.75;24.95;;;;;;;22.16;76.24;99985.55;1716384;82;21358;-55
2023/08/29 01:16:05;;;;;;;27.00;24.10;;;;;;;22.12;76.35;99981.04;1715652;83;21421;-56
2023/08/29 01:19:16;;;;;;;27.42;24.25;;;;;;;22.10;76.55;99970.69;1716051;83;21366;-55
2023/08/29 01:22:52;;;;;;;27.07;24.18;;;;;;;22.12;76.70;99963.45;1715539;83;21390;-56
2023/08/29 01:26:22;;;;;;;26.35;23.07;;;;;;;22.12;76.81;99964.31;1714652;82;21397;-54
2023/08/29 01:29:28;;;;;;;27.20;24.23;;;;;;;22.12;76.85;99947.58;1719029;83;21863;-54
2023/08/29 01:32:34;;;;;;;26.60;23.75;;;;;;;22.11;76.96;99950.09;1715625;82;21475;-54
2023/08/29 01:35:43;;;;;;;28.38;23.47;;;;;;;22.10;76.98;99958.14;1701094;83;21192;-53
2023/08/29 01:38:50;;;;;;;27.25;24.32;;;;;;;22.07;77.01;99959.23;1698209;83;21377;-53
2023/08/29 01:41:57;;;;;;;28.35;25.35;;;;;;;22.05;77.00;99958.11;1714969;83;21258;-54
2023/08/29 01:45:03;;;;;;;29.40;22.95;;;;;;;22.05;77.18;99967.87;1717602;83;21732;-54
2023/08/29 01:48:09;;;;;;;28.42;25.43;;;;;;;22.02;77.21;99969.75;1719307;83;21381;-53
2023/08/29 01:51:16;;;;;;;27.73;24.45;;;;;;;22.00;77.17;99984.52;1715888;82;21497;-53
2023/08/29 01:54:24;;;;;;;27.90;25.08;;;;;;;21.96;77.20;99980.55;1719953;83;21397;-54
2023/08/29 01:57:31;;;;;;;29.37;24.95;;;;;;;21.98;77.37;99992.30;1715469;83;21405;-54
2023/08/29 02:00:38;;;;;;;28.38;25.27;;;;;;;21.97;77.53;99986.45;1716182;82;21879;-55
2023/08/29 02:03:45;;;;;;;28.47;24.75;;;;;;;21.99;77.67;99984.22;1720003;83;21389;-55
2023/08/29 02:06:52;;;;;;;30.15;25.45;;;;;;;21.99;77.65;99994.55;1715983;83;21393;-55
2023/08/29 02:09:57;;;;;;;27.73;24.72;;;;;;;21.99;77.80;99995.36;1711888;83;21389;-54
2023/08/29 02:13:02;;;;;;;28.35;24.60;;;;;;;22.00;77.85;99998.47;1713539;83;21247;-54
2023/08/29 02:16:11;;;;;;;30.15;24.00;;;;;;;22.01;77.95;99979.23;1713433;83;21764;-55
2023/08/29 02:19:17;;;;;;;27.05;24.15;;;;;;;22.01;78.03;99983.41;1697141;83;21863;-55
2023/08/29 02:22:23;;;;;;;27.82;24.37;;;;;;;22.02;78.03;99996.23;1713313;83;21591;-55
2023/08/29 02:25:30;;;;;;;27.32;24.37;;;;;;;22.02;78.13;99992.05;1713521;83;21256;-55
2023/08/29 02:28:39;;;;;;;27.93;24.32;;;;;;;22.05;78.20;99979.02;1713365;83;21267;-55
2023/08/29 02:31:41;;;;;;;27.15;24.35;;;;;;;22.07;78.29;99973.18;1713924;83;21258;-55
2023/08/29 02:34:49;;;;;;;26.95;24.05;;;;;;;22.09;78.31;99978.78;1713293;83;21701;-55
2023/08/29 02:37:56;;;;;;;28.40;25.40;;;;;;;22.08;78.36;99979.89;1713332;83;21239;-55
2023/08/29 02:41:04;;;;;;;28.42;25.35;;;;;;;22.06;78.33;99970.94;1697371;83;21895;-55
2023/08/29 02:44:10;;;;;;;30.43;25.50;;;;;;;22.05;78.36;99969.80;1713730;83;21235;-55
2023/08/29 02:47:16;;;;;;;29.05;25.90;;;;;;;22.03;78.35;99978.43;1696667;83;21666;-55
2023/08/29 02:50:22;;;;;;;30.10;24.55;;;;;;;22.02;78.35;99980.91;1713528;83;21227;-56
2023/08/29 02:53:29;;;;;;;27.50;24.70;;;;;;;21.99;78.29;99981.42;1713618;83;21215;-54
2023/08/29 02:56:36;;;;;;;28.77;25.68;;;;;;;21.95;78.32;99981.67;1713296;83;21215;-56
2023/08/29 02:59:41;;;;;;;28.30;23.98;;;;;;;21.95;78.47;99989.17;1713827;83;21219;-56
2023/08/29 03:02:47;;;;;;;32.83;25.92;;;;;;;21.93;78.49;99993.63;1713515;83;21251;-55
2023/08/29 03:06:04;;;;;;;31.27;25.23;;;;;;;21.93;78.55;100004.77;1713525;83;21741;-55
2023/08/29 03:09:10;;;;;;;28.77;23.57;;;;;;;21.95;78.67;100010.94;1714135;83;21227;-55
2023/08/29 03:12:17;;;;;;;26.45;23.65;;;;;;;21.99;78.77;100019.63;1715104;83;21366;-55
2023/08/29 03:15:23;;;;;;;27.95;23.92;;;;;;;21.99;78.74;100028.00;1715670;82;21762;-55
2023/08/29 03:18:30;;;;;;;29.30;22.65;;;;;;;22.00;78.82;100031.92;1715598;83;21375;-58
2023/08/29 03:21:36;;;;;;;28.07;24.07;;;;;;;22.02;78.95;100028.30;1715605;82;21542;-59
2023/08/29 03:24:41;;;;;;;26.93;23.73;;;;;;;22.03;78.98;100041.16;1715472;83;21390;-58
2023/08/29 03:27:49;;;;;;;31.17;25.68;;;;;;;22.05;78.95;100042.30;1715356;83;21374;-59
2023/08/29 03:30:55;;;;;;;29.90;26.73;;;;;;;22.06;79.01;100050.39;1715690;83;21902;-59
2023/08/29 03:34:02;;;;;;;29.57;26.37;;;;;;;22.07;79.08;100045.09;1715017;83;21369;-58
2023/08/29 03:37:09;;;;;;;31.60;26.42;;;;;;;22.10;79.16;100054.34;1715546;83;21259;-58
2023/08/29 03:40:17;;;;;;;29.27;25.95;;;;;;;22.13;79.19;100062.75;1716631;83;21390;-58
2023/08/29 03:43:23;;;;;;;30.10;25.68;;;;;;;22.15;79.26;100065.56;1715619;83;21420;-58
2023/08/29 03:46:33;;;;;;;30.30;26.20;;;;;;;22.17;79.29;100067.55;1715746;83;21429;-58
2023/08/29 03:49:40;;;;;;;28.42;25.40;;;;;;;22.22;79.37;100072.34;1715475;82;21461;-57
2023/08/29 03:52:47;;;;;;;32.45;26.97;;;;;;;22.25;79.44;100069.61;1715570;83;21377;-60
2023/08/29 03:55:52;;;;;;;30.97;25.10;;;;;;;22.28;79.48;100070.48;1715598;83;21346;-57
2023/08/29 03:59:00;;;;;;;32.75;26.00;;;;;;;22.31;79.51;100074.14;1715645;83;21381;-58
2023/08/29 04:02:07;;;;;;;30.85;25.65;;;;;;;22.33;79.56;100070.52;1715659;83;21369;-58
2023/08/29 04:05:20;;;;;;;32.98;25.48;;;;;;;22.34;79.59;100062.47;1715595;83;21226;-58
2023/08/29 04:08:26;;;;;;;29.35;24.12;;;;;;;22.37;79.64;100073.09;1715638;83;21400;-57
2023/08/29 04:11:31;;;;;;;28.40;25.37;;;;;;;22.40;79.78;100068.39;1712897;83;21241;-57
2023/08/29 04:14:36;;;;;;;28.47;25.43;;;;;;;22.44;79.91;100079.34;1719764;83;21394;-58
2023/08/29 04:17:42;;;;;;;29.32;24.27;;;;;;;22.47;79.93;100073.23;1719756;82;21977;-58
2023/08/29 04:20:43;;;;;;;28.67;24.75;;;;;;;22.50;79.92;100074.10;1719879;83;21405;-58
2023/08/29 04:23:35;;;;;;;33.38;26.05;;;;;;;22.51;79.94;100066.87;1719630;83;21835;-58
2023/08/29 04:26:40;;;;;;;32.60;25.72;;;;;;;22.56;80.04;100071.69;1720256;83;21390;-60
2023/08/29 04:29:46;;;;;;;31.05;25.75;;;;;;;22.60;80.10;100072.84;1720428;82;21476;-59
2023/08/29 04:32:52;;;;;;;34.88;25.43;;;;;;;22.64;80.14;100069.84;1720286;83;21735;-59
2023/08/29 04:35:59;;;;;;;31.27;25.68;;;;;;;22.70;80.24;100071.56;1720169;83;21330;-59
2023/08/29 04:39:06;;;;;;;32.15;24.10;;;;;;;22.74;80.31;100075.54;1721524;82;21787;-59
2023/08/29 04:42:15;;;;;;;39.05;26.48;;;;;;;22.78;80.27;100071.10;1720210;83;21380;-60
2023/08/29 04:45:21;;;;;;;28.00;25.15;;;;;;;22.82;80.36;100077.83;1720476;83;21394;-59
2023/08/29 04:48:25;;;;;;;29.72;25.90;;;;;;;22.86;80.34;100081.25;1720069;83;21381;-59
2023/08/29 04:51:31;;;;;;;30.48;26.27;;;;;;;22.92;80.38;100081.59;1744666;82;21203;-59
2023/08/29 04:54:37;;;;;;;31.30;25.43;;;;;;;22.99;80.44;100087.79;1741220;81;21752;-59
2023/08/29 04:57:42;;;;;;;32.42;25.72;;;;;;;23.06;80.48;100083.39;1637206;85;21257;-61
2023/08/29 05:00:48;;;;;;;29.25;26.10;;;;;;;23.11;80.49;100080.11;1684931;84;21740;-60
2023/08/29 05:03:55;;;;;;;33.78;25.68;;;;;;;23.18;80.46;100081.30;1735777;82;21222;-59
2023/08/29 05:07:00;;;;;;;31.17;25.82;;;;;;;23.25;80.36;100081.90;1727180;82;21808;-59
2023/08/29 05:10:04;;;;;;;32.90;25.70;;;;;;;23.33;80.33;100085.64;1718803;83;21255;-59
2023/08/29 05:13:11;;;;;;;33.28;26.48;;;;;;;23.40;80.38;100091.28;1718423;80;21298;-59
2023/08/29 05:16:17;;;;;;;30.65;25.75;;;;;;;23.49;80.37;100094.44;1687399;83;21308;-59
2023/08/29 05:19:22;;;;;;;27.67;24.67;;;;;;;23.56;80.33;100095.08;1697673;83;21216;-58
2023/08/29 05:22:29;;;;;;;28.87;25.80;;;;;;;23.63;80.28;100095.67;1712602;83;21227;-60
2023/08/29 05:25:35;;;;;;;28.57;24.60;;;;;;;23.70;80.27;100091.25;1689587;83;21259;-59
2023/08/29 05:28:41;;;;;;;31.57;25.17;;;;;;;23.77;80.36;100101.08;1700454;83;21303;-58
2023/08/29 05:31:47;;;;;;;30.45;24.05;;;;;;;23.85;80.44;100100.58;1701557;83;21227;-58
2023/08/29 05:34:53;;;;;;;29.90;24.95;;;;;;;23.94;80.39;100102.33;1707561;82;21239;-58
2023/08/29 05:37:59;;;;;;;29.20;25.10;;;;;;;24.00;80.40;100102.68;1689702;82;21562;-60
2023/08/29 05:41:06;;;;;;;28.05;23.22;;;;;;;24.08;80.44;100100.77;1705208;83;21208;-60
2023/08/29 05:44:12;;;;;;;27.42;23.50;;;;;;;24.16;80.48;100103.91;1708693;82;21290;-60
2023/08/29 05:47:17;;;;;;;25.65;22.10;;;;;;;24.25;80.50;100102.27;1686529;84;21201;-59
2023/08/29 05:50:22;;;;;;;27.75;22.73;;;;;;;24.33;80.47;100103.16;1690609;83;21224;-58
2023/08/29 05:53:28;;;;;;;29.35;24.35;;;;;;;24.41;80.48;100108.23;1708940;83;21779;-58
2023/08/29 05:56:33;;;;;;;25.57;22.70;;;;;;;24.47;80.40;100116.94;1714506;83;21227;-59
2023/08/29 05:59:40;;;;;;;30.95;22.20;;;;;;;24.49;80.19;100125.06;1701125;83;21753;-59
2023/08/29 06:02:47;;;;;;;28.57;22.02;;;;;;;24.52;80.17;100125.36;1696619;83;21807;-58
2023/08/29 06:05:58;;;;;;;23.98;21.60;;;;;;;24.59;80.20;100131.53;1714861;83;21255;-57
2023/08/29 06:09:05;;;;;;;25.88;21.35;;;;;;;24.68;80.18;100126.30;1618304;86;21843;-59
2023/08/29 06:12:31;;;;;;;25.27;21.48;;;;;;;24.79;80.21;100125.22;1641987;86;21874;-60
2023/08/29 06:15:36;;;;;;;23.83;21.23;;;;;;;24.94;80.16;100116.30;1713877;82;21279;-60
2023/08/29 06:18:43;;;;;;;26.45;20.57;;;;;;;25.08;80.03;100124.45;1728464;83;21227;-59
2023/08/29 06:21:48;;;;;;;25.60;20.60;;;;;;;25.19;79.79;100117.47;1714822;82;21216;-59
2023/08/29 06:24:54;;;;;;;24.52;20.10;;;;;;;25.28;79.50;100120.00;1721350;82;21713;-60
2023/08/29 06:28:00;;;;;;;24.90;22.27;;;;;;;25.40;79.57;100120.62;1716635;82;21232;-59
2023/08/29 06:31:14;;;;;;;25.45;20.50;;;;;;;25.50;79.49;100112.23;1714134;82;21211;-59
2023/08/29 06:34:20;;;;;;;25.43;20.60;;;;;;;25.58;79.43;100114.45;1717532;82;21743;-59
2023/08/29 06:37:25;;;;;;;22.42;20.17;;;;;;;25.65;79.42;100124.28;1721587;82;21180;-59
2023/08/29 06:40:33;;;;;;;35.05;27.87;;;;;;;25.71;79.23;100118.09;1714565;82;21775;-60
2023/08/29 06:43:40;;;;;;;30.15;22.37;;;;;;;25.78;79.31;100127.09;1718143;82;21786;-58
2023/08/29 06:46:45;;;;;;;23.20;20.82;;;;;;;25.86;79.33;100125.12;1714679;82;21671;-57
2023/08/29 06:49:54;;;;;;;26.20;22.73;;;;;;;25.92;79.29;100125.39;1711562;82;21713;-59
2023/08/29 06:53:17;;;;;;;26.75;22.37;;;;;;;25.99;79.32;100117.53;1679948;85;21694;-59
2023/08/29 06:56:23;;;;;;;21.33;19.10;;;;;;;26.06;79.33;100115.30;1665463;85;21212;-59
2023/08/29 06:59:29;;;;;;;20.88;18.48;;;;;;;26.11;79.17;100118.09;1666183;85;21773;-61
2023/08/29 07:02:33;;;;;;;22.40;17.42;;;;;;;26.15;79.02;100120.59;1688779;83;21279;-59
2023/08/29 07:05:40;;;;;;;23.30;17.82;;;;;;;26.15;78.79;100113.58;1709126;82;21215;-60
2023/08/29 07:09:05;;;;;;;25.52;18.32;;;;;;;26.18;78.78;100116.66;1714253;83;21246;-60
2023/08/29 07:12:29;;;;;;;20.20;17.30;;;;;;;26.25;78.86;100110.20;1721538;82;21204;-59
2023/08/29 07:15:34;;;;;;;23.65;18.32;;;;;;;26.32;78.74;100109.33;1711866;82;21363;-58
2023/08/29 07:18:39;;;;;;;24.65;18.10;;;;;;;26.38;78.77;100106.80;1740071;81;21283;-59
2023/08/29 07:21:46;;;;;;;20.57;17.80;;;;;;;26.44;78.67;100111.82;1718031;82;21852;-59
2023/08/29 07:24:54;;;;;;;19.20;17.27;;;;;;;26.51;78.64;100112.38;1748014;81;21199;-59
2023/08/29 07:28:01;;;;;;;19.45;16.65;;;;;;;26.59;78.53;100110.38;1742302;81;21311;-59
2023/08/29 07:31:25;;;;;;;18.75;16.73;;;;;;;26.66;78.43;100110.07;1753847;81;21242;-58
2023/08/29 07:34:50;;;;;;;18.90;16.60;;;;;;;26.71;78.24;100110.91;1742024;82;21259;-59
2023/08/29 07:37:57;;;;;;;20.97;16.48;;;;;;;26.78;78.25;100115.66;1720114;82;21274;-59
2023/08/29 07:41:04;;;;;;;19.62;15.90;;;;;;;26.87;78.21;100117.28;1746229;81;21204;-59
2023/08/29 07:44:12;;;;;;;19.82;16.90;;;;;;;26.94;78.15;100110.21;1730119;82;21227;-59
2023/08/29 07:47:17;;;;;;;19.90;15.43;;;;;;;27.02;78.06;100123.66;1704963;82;21910;-60
2023/08/29 07:50:24;;;;;;;18.00;16.07;;;;;;;27.07;77.84;100119.97;1716809;83;21800;-59
2023/08/29 07:53:30;;;;;;;22.10;16.97;;;;;;;27.08;77.67;100121.11;1743371;82;21768;-60
2023/08/29 07:56:40;;;;;;;19.15;16.35;;;;;;;27.13;77.59;100128.67;1737829;82;21378;-61
2023/08/29 07:59:46;;;;;;;17.75;15.93;;;;;;;27.19;77.52;100131.72;1731805;82;21219;-61
2023/08/29 08:02:54;;;;;;;17.05;15.13;;;;;;;27.25;77.37;100133.36;1685034;83;21928;-62
2023/08/29 08:06:01;;;;;;;16.80;15.00;;;;;;;27.30;77.23;100128.59;1724602;82;21220;-61
2023/08/29 08:09:07;;;;;;;16.25;14.55;;;;;;;27.37;77.11;100128.27;1738015;82;21204;-56
2023/08/29 08:12:14;;;;;;;21.15;16.10;;;;;;;27.48;77.06;100129.28;1735882;80;21196;-59
2023/08/29 08:15:20;;;;;;;19.02;16.90;;;;;;;27.58;77.00;100126.96;1717991;82;21774;-60
2023/08/29 08:18:27;;;;;;;21.93;15.18;;;;;;;27.68;76.93;100131.95;1722878;80;21278;-61
2023/08/29 08:21:35;;;;;;;19.37;14.83;;;;;;;27.77;76.83;100125.11;1735449;80;21259;-59
2023/08/29 08:24:40;;;;;;;17.77;14.65;;;;;;;27.88;76.72;100125.33;1738371;80;21207;-60
2023/08/29 08:27:47;;;;;;;21.87;16.80;;;;;;;27.95;76.52;100123.02;1751791;80;21245;-61
2023/08/29 08:30:55;;;;;;;23.73;15.20;;;;;;;28.03;76.45;100118.16;1731768;80;21250;-62
2023/08/29 08:34:01;;;;;;;16.85;14.47;;;;;;;28.13;76.28;100118.63;1734229;80;21787;-62
2023/08/29 08:37:09;;;;;;;19.75;15.25;;;;;;;28.22;76.13;100121.05;1739117;81;21255;-61
2023/08/29 08:40:17;;;;;;;18.67;14.90;;;;;;;28.28;75.88;100121.27;1737813;80;21964;-60
2023/08/29 08:43:23;;;;;;;26.42;19.52;;;;;;;28.34;75.71;100122.88;1729606;82;21713;-62
2023/08/29 08:46:46;;;;;;;22.77;15.70;;;;;;;28.41;75.58;100126.20;1748834;81;21545;-59
2023/08/29 08:53:34;;;;;;;20.15;14.78;;;;;;;28.56;75.35;100117.61;1738359;82;21211;-61
2023/08/29 08:56:39;;;;;;;20.32;14.33;;;;;;;28.63;75.06;100117.52;1717570;82;21200;-61
2023/08/29 08:59:46;;;;;;;19.80;14.53;;;;;;;28.70;74.31;100113.74;1719408;82;21320;-60
2023/08/29 09:02:51;;;;;;;19.37;13.55;;;;;;;28.70;74.31;100113.74;1733229;82;21259;-59
2023/08/29 09:05:57;;;;;;;18.98;12.35;;;;;;;28.77;74.38;100113.38;1685371;83;21325;-56
2023/08/29 09:09:29;;;;;;;14.43;12.47;;;;;;;28.82;74.17;100109.94;1747498;82;21271;-56
2023/08/29 09:12:34;;;;;;;15.08;10.95;;;;;;;28.91;74.01;100115.72;1746944;81;21263;-57
2023/08/29 09:15:42;;;;;;;15.70;12.25;;;;;;;28.99;73.80;100110.81;1662213;84;21217;-58
2023/08/29 09:18:52;;;;;;;14.58;12.37;;;;;;;29.08;73.67;100116.92;1714095;83;21275;-58
2023/08/29 09:21:58;;;;;;;17.02;14.80;;;;;;;29.19;73.61;100107.76;1716025;82;21779;-58
2023/08/29 09:25:11;;;;;;;14.95;13.45;;;;;;;29.28;73.43;100111.56;1722455;82;21370;-59
2023/08/29 09:28:19;;;;;;;16.85;11.40;;;;;;;29.36;73.13;100115.10;1718963;82;21252;-58
2023/08/29 09:31:24;;;;;;;13.78;11.40;;;;;;;29.42;72.92;100101.18;1735156;82;21724;-59
2023/08/29 09:34:37;;;;;;;14.65;11.38;;;;;;;29.60;72.56;100103.15;1677156;85;21241;-59
2023/08/29 09:37:55;;;;;;;13.80;12.05;;;;;;;29.60;72.56;100103.15;1743207;82;21349;-58
2023/08/29 09:40:59;;;;;;;14.25;11.12;;;;;;;29.67;72.23;100099.38;1734025;82;21585;-59
2023/08/29 09:44:04;;;;;;;14.60;11.00;;;;;;;29.73;71.97;100098.14;1735355;82;21740;-59
2023/08/29 09:47:16;;;;;;;14.15;11.90;;;;;;;29.81;71.80;100103.08;1729823;82;21319;-61
2023/08/29 09:50:23;;;;;;;13.75;11.45;;;;;;;29.88;71.57;100097.03;1720866;82;21279;-58
2023/08/29 09:53:30;;;;;;;16.80;12.25;;;;;;;29.93;71.31;100089.33;1734324;82;21232;-59
2023/08/29 09:56:35;;;;;;;17.27;12.35;;;;;;;29.95;71.08;100092.69;1657302;86;21196;-59
2023/08/29 09:59:42;;;;;;;14.13;11.15;;;;;;;30.04;71.00;100090.81;1663666;85;21287;-58
2023/08/29 10:02:50;;;;;;;14.10;11.15;;;;;;;30.14;70.86;100089.78;1689097;84;21375;-57
2023/08/29 10:05:57;;;;;;;12.50;11.20;;;;;;;30.24;70.63;100098.11;1644394;86;21775;-55
2023/08/29 10:09:05;;;;;;;15.40;11.05;;;;;;;30.26;70.31;100100.87;1650025;86;21240;-56
2023/08/29 10:12:10;;;;;;;14.35;12.03;;;;;;;30.36;70.06;100099.83;1646017;85;21256;-53
2023/08/29 10:19:26;;;;;;;14.07;11.45;;;;;;;30.51;69.75;100082.55;1704988;82;21295;-54
2023/08/29 10:22:35;;;;;;;13.15;11.28;;;;;;;30.63;69.50;100098.43;1720620;82;21204;-53
2023/08/29 10:25:40;;;;;;;11.93;10.63;;;;;;;30.74;69.35;100098.47;1666833;83;21457;-54
2023/08/29 10:28:46;;;;;;;12.60;10.50;;;;;;;30.82;69.06;100105.40;1670703;85;21284;-54
2023/08/29 10:31:52;;;;;;;12.15;10.85;;;;;;;30.89;68.76;100107.23;1667177;85;21232;-53
2023/08/29 10:34:52;;;;;;;15.30;11.40;;;;;;;30.90;68.31;100111.16;1683829;85;21765;-53
2023/08/29 10:37:45;;;;;;;12.15;10.50;;;;;;;30.97;68.03;100110.73;1671737;85;21319;-54
2023/08/29 10:40:51;;;;;;;12.33;10.68;;;;;;;31.02;67.72;100116.25;1703752;84;21224;-54
2023/08/29 10:43:57;;;;;;;13.05;10.03;;;;;;;31.07;67.52;100121.23;1685810;83;21235;-54
2023/08/29 10:47:26;;;;;;;13.58;10.63;;;;;;;31.14;67.29;100108.92;1714331;83;21203;-54
2023/08/29 10:50:30;;;;;;;14.00;10.63;;;;;;;31.20;66.95;100106.80;1732687;82;21251;-53
2023/08/29 10:53:36;;;;;;;14.28;10.03;;;;;;;31.28;66.69;100101.80;1649548;84;21247;-54
2023/08/29 10:56:56;;;;;;;10.90;9.80;;;;;;;31.34;66.34;100090.64;1708865;83;21219;-53
2023/08/29 10:59:59;;;;;;;14.20;9.85;;;;;;;31.39;66.05;100099.02;1670466;85;21223;-54
2023/08/29 11:03:06;;;;;;;15.32;9.68;;;;;;;31.47;65.87;100096.27;1743528;81;21370;-54
2023/08/29 11:06:12;;;;;;;11.22;9.93;;;;;;;31.55;65.60;100096.92;1724504;81;21210;-54
2023/08/29 11:09:29;;;;;;;10.32;9.13;;;;;;;31.64;65.28;100102.06;1713881;82;21562;-54
2023/08/29 11:12:35;;;;;;;22.55;20.20;;;;;;;31.71;65.04;100102.44;1698570;82;21904;-54
2023/08/29 11:16:02;;;;;;;11.00;9.55;;;;;;;31.80;64.83;100103.35;1659661;84;21233;-54
2023/08/29 11:19:14;;;;;;;10.65;9.58;;;;;;;31.91;64.59;100102.53;1680914;85;21251;-53
2023/08/29 11:22:22;;;;;;;12.07;9.40;;;;;;;32.00;64.18;100107.66;1683436;84;22021;-55
2023/08/29 11:25:31;;;;;;;10.50;9.40;;;;;;;32.05;63.75;100103.28;1690576;83;21251;-53
2023/08/29 11:28:37;;;;;;;9.10;8.15;;;;;;;32.02;63.15;100111.02;1676630;85;21669;-54
2023/08/29 11:31:49;;;;;;;10.35;9.23;;;;;;;32.05;63.02;100106.11;1658403;84;21227;-55
2023/08/29 11:34:59;;;;;;;12.07;9.57;;;;;;;32.18;62.98;100112.85;1664013;84;21726;-55
2023/08/29 11:38:06;;;;;;;10.93;9.20;;;;;;;32.32;63.14;100101.68;1676493;83;21268;-54
2023/08/29 11:41:16;;;;;;;9.68;8.68;;;;;;;32.45;62.67;100102.77;1670317;85;21261;-54
2023/08/29 11:44:26;;;;;;;11.90;8.98;;;;;;;32.50;62.15;100102.63;1678991;84;21286;-54
2023/08/29 11:47:33;;;;;;;12.05;9.10;;;;;;;32.53;61.96;100107.64;1682745;85;21433;-55
2023/08/29 11:50:43;;;;;;;16.87;9.38;;;;;;;32.60;61.75;100107.41;1677570;84;21742;-55
2023/08/29 11:53:48;;;;;;;22.35;9.58;;;;;;;32.67;61.38;100099.28;1676220;85;21780;-54
2023/08/29 11:56:54;;;;;;;10.72;8.95;;;;;;;32.73;61.02;100094.31;1676484;85;21223;-54
2023/08/29 12:00:04;;;;;;;12.07;9.70;;;;;;;32.71;60.53;100087.55;1662583;83;21223;-54
2023/08/29 12:03:10;;;;;;;10.82;9.68;;;;;;;32.63;60.04;100084.67;1657694;85;21271;-54
2023/08/29 12:06:20;;;;;;;16.57;9.23;;;;;;;32.60;59.73;100083.31;1689711;85;21224;-54
2023/08/29 12:09:31;;;;;;;11.53;9.20;;;;;;;32.63;59.66;100081.84;1677675;85;21994;-54
2023/08/29 12:12:40;;;;;;;14.45;10.18;;;;;;;32.70;59.54;100080.76;1658563;85;21293;-54
2023/08/29 12:15:46;;;;;;;14.83;9.40;;;;;;;32.71;59.25;100074.79;1671268;83;21214;-54
2023/08/29 12:18:53;;;;;;;11.60;9.55;;;;;;;32.75;59.03;100083.45;1691024;83;21339;-54
2023/08/29 12:22:02;;;;;;;11.00;9.28;;;;;;;32.74;58.71;100074.13;1690526;84;21243;-54
2023/08/29 12:25:07;;;;;;;17.67;10.50;;;;;;;32.75;58.42;100072.11;1699703;82;21297;-53
2023/08/29 12:28:15;;;;;;;13.30;9.43;;;;;;;32.73;58.04;100075.27;1681482;83;21253;-55
2023/08/29 12:31:20;;;;;;;16.55;9.95;;;;;;;32.73;57.89;100076.69;1674704;84;21284;-55
2023/08/29 12:34:27;;;;;;;11.63;9.63;;;;;;;32.73;57.79;100071.63;1658234;83;21306;-53
2023/08/29 12:37:32;;;;;;;13.28;10.58;;;;;;;32.68;57.34;100071.16;1654969;85;21292;-55
2023/08/29 12:40:39;;;;;;;11.15;9.63;;;;;;;32.62;57.02;100070.26;1684278;84;21242;-57
2023/08/29 12:43:44;;;;;;;13.98;9.98;;;;;;;32.55;56.65;100072.15;1684308;84;21294;-54
2023/08/29 12:46:51;;;;;;;12.10;10.28;;;;;;;32.49;56.48;100066.34;1685015;83;21748;-54
2023/08/29 12:49:58;;;;;;;13.48;9.78;;;;;;;32.45;56.26;100073.01;1703134;83;21346;-53
2023/08/29 12:53:06;;;;;;;14.47;9.98;;;;;;;32.40;56.11;100071.73;1712140;83;21223;-53
2023/08/29 12:56:13;;;;;;;13.08;10.45;;;;;;;32.37;55.97;100066.72;1700296;83;21200;-53
2023/08/29 12:59:17;;;;;;;15.68;9.83;;;;;;;32.32;55.79;100065.45;1711073;83;21805;-50
2023/08/29 13:02:23;;;;;;;14.00;10.53;;;;;;;32.29;55.70;100066.06;1684375;83;21266;-54
2023/08/29 13:05:29;;;;;;;12.10;10.70;;;;;;;32.29;55.70;100064.08;1692827;83;22097;-54
2023/08/29 13:08:36;;;;;;;15.30;10.35;;;;;;;32.29;55.62;100066.91;1692862;83;21275;-55
2023/08/29 13:11:43;;;;;;;14.28;10.53;;;;;;;32.27;55.37;100069.23;1712151;83;21237;-55
2023/08/29 13:14:49;;;;;;;13.98;10.55;;;;;;;32.24;55.28;100068.47;1694185;83;21867;-54
2023/08/29 13:17:54;;;;;;;16.52;10.30;;;;;;;32.26;55.23;100077.48;1696372;83;21336;-54
2023/08/29 13:21:00;;;;;;;11.03;9.93;;;;;;;32.27;55.09;100069.83;1708500;83;21604;-53
2023/08/29 13:24:07;;;;;;;14.13;10.55;;;;;;;32.27;55.04;100070.64;1715717;83;21283;-54
2023/08/29 13:27:12;;;;;;;13.08;9.95;;;;;;;32.28;54.95;100075.17;1741745;81;21390;-54
2023/08/29 13:30:18;;;;;;;14.43;10.48;;;;;;;32.28;54.77;100080.84;1735783;82;21204;-54
2023/08/29 13:33:24;;;;;;;14.87;10.10;;;;;;;32.26;54.56;100070.41;1643533;87;21280;-56
2023/08/29 13:36:31;;;;;;;23.95;21.42;;;;;;;32.20;54.32;100070.30;1649727;85;21738;-54
2023/08/29 13:39:40;;;;;;;13.72;10.98;;;;;;;32.21;54.30;100074.79;1679733;84;21259;-54
2023/08/29 13:42:45;;;;;;;13.35;9.83;;;;;;;32.22;54.20;100082.72;1668592;85;21882;-54
2023/08/29 13:45:52;;;;;;;14.68;10.50;;;;;;;32.20;54.07;100076.53;1680727;84;21637;-55
2023/08/29 13:48:59;;;;;;;13.38;10.55;;;;;;;32.18;54.00;100073.19;1685831;84;21251;-55
2023/08/29 13:52:07;;;;;;;12.45;10.00;;;;;;;32.16;53.95;100066.42;1703715;83;21563;-54
2023/08/29 13:55:14;;;;;;;11.43;9.93;;;;;;;32.14;53.88;100071.61;1683148;85;21267;-53
2023/08/29 13:58:20;;;;;;;13.60;10.40;;;;;;;32.15;53.85;100069.02;1654300;85;21386;-54
2023/08/29 14:01:25;;;;;;;12.73;10.25;;;;;;;32.16;53.79;100078.36;1660390;85;21772;-53
2023/08/29 14:04:32;;;;;;;16.12;10.45;;;;;;;32.13;53.61;100076.19;1669349;85;21228;-54
2023/08/29 14:07:37;;;;;;;14.30;10.10;;;;;;;32.06;53.51;100076.64;1659388;85;21244;-54
2023/08/29 14:10:43;;;;;;;12.18;10.35;;;;;;;32.04;53.50;100076.12;1655531;85;21204;-54
2023/08/29 14:13:49;;;;;;;14.43;10.80;;;;;;;32.01;53.44;100076.78;1668786;84;21767;-54
2023/08/29 14:16:55;;;;;;;16.27;10.43;;;;;;;31.98;53.41;100074.59;1666835;85;22041;-54
2023/08/29 14:20:04;;;;;;;15.23;11.28;;;;;;;31.96;53.42;100071.25;1669115;84;21551;-55
2023/08/29 14:23:08;;;;;;;16.23;11.57;;;;;;;31.93;53.38;100071.33;1688039;82;22057;-56